sensor_id;sensor_type;location;lat;lon;timestamp;P1;durP1;ratioP1;P2;durP2;ratioP2
64714;SDS011;51144;53.002;6.506;2023-02-28T00:00:33;10.50;;;2.60;;
64714;SDS011;51144;53.002;6.506;2023-02-28T00:02:59;6.63;;;1.90;;
64714;SDS011;51144;53.002;6.506;2023-02-28T00:05:25;6.82;;;1.70;;
64714;SDS011;51144;53.002;6.506;2023-02-28T00:07:52;9.75;;;1.70;;
64714;SDS011;51144;53.002;6.506;2023-02-28T00:10:19;9.85;;;1.95;;
64714;SDS011;51144;53.002;6.506;2023-02-28T00:12:48;11.35;;;2.30;;
64714;SDS011;51144;53.002;6.506;2023-02-28T00:15:15;9.13;;;2.22;;
64714;SDS011;51144;53.002;6.506;2023-02-28T00:17:41;9.73;;;1.83;;
64714;SDS011;51144;53.002;6.506;2023-02-28T00:20:07;5.82;;;1.80;;
64714;SDS011;51144;53.002;6.506;2023-02-28T00:22:35;10.38;;;3.10;;
64714;SDS011;51144;53.002;6.506;2023-02-28T00:25:01;8.27;;;2.03;;
64714;SDS011;51144;53.002;6.506;2023-02-28T00:27:27;6.75;;;1.83;;
64714;SDS011;51144;53.002;6.506;2023-02-28T00:29:52;7.78;;;2.03;;
64714;SDS011;51144;53.002;6.506;2023-02-28T00:32:19;6.88;;;1.52;;
64714;SDS011;51144;53.002;6.506;2023-02-28T00:34:44;12.52;;;2.42;;
64714;SDS011;51144;53.002;6.506;2023-02-28T00:37:10;8.50;;;2.53;;
64714;SDS011;51144;53.002;6.506;2023-02-28T00:39:39;9.40;;;1.92;;
64714;SDS011;51144;53.002;6.506;2023-02-28T00:42:06;9.10;;;2.85;;
64714;SDS011;51144;53.002;6.506;2023-02-28T00:44:32;9.50;;;1.92;;
64714;SDS011;51144;53.002;6.506;2023-02-28T00:46:58;11.13;;;2.53;;
64714;SDS011;51144;53.002;6.506;2023-02-28T00:49:25;14.13;;;1.92;;
64714;SDS011;51144;53.002;6.506;2023-02-28T00:51:51;10.48;;;2.10;;
64714;SDS011;51144;53.002;6.506;2023-02-28T00:54:18;8.20;;;2.00;;
64714;SDS011;51144;53.002;6.506;2023-02-28T00:56:44;6.55;;;2.33;;
64714;SDS011;51144;53.002;6.506;2023-02-28T00:59:11;7.70;;;1.77;;
64714;SDS011;51144;53.002;6.506;2023-02-28T01:01:37;8.30;;;1.92;;
64714;SDS011;51144;53.002;6.506;2023-02-28T01:04:04;9.18;;;2.50;;
64714;SDS011;51144;53.002;6.506;2023-02-28T01:06:30;8.45;;;2.22;;
64714;SDS011;51144;53.002;6.506;2023-02-28T01:08:56;6.43;;;2.13;;
64714;SDS011;51144;53.002;6.506;2023-02-28T01:11:22;7.15;;;2.17;;
64714;SDS011;51144;53.002;6.506;2023-02-28T01:13:48;6.93;;;1.80;;
64714;SDS011;51144;53.002;6.506;2023-02-28T01:16:13;4.22;;;1.70;;
64714;SDS011;51144;53.002;6.506;2023-02-28T01:18:39;10.02;;;2.25;;
64714;SDS011;51144;53.002;6.506;2023-02-28T01:21:12;6.70;;;2.25;;
64714;SDS011;51144;53.002;6.506;2023-02-28T01:23:40;9.00;;;2.97;;
64714;SDS011;51144;53.002;6.506;2023-02-28T01:26:10;9.65;;;2.72;;
64714;SDS011;51144;53.002;6.506;2023-02-28T01:28:40;5.65;;;1.85;;
64714;SDS011;51144;53.002;6.506;2023-02-28T01:31:07;5.78;;;1.85;;
64714;SDS011;51144;53.002;6.506;2023-02-28T01:33:33;9.52;;;1.90;;
64714;SDS011;51144;53.002;6.506;2023-02-28T01:36:00;8.40;;;2.17;;
64714;SDS011;51144;53.002;6.506;2023-02-28T01:38:27;13.23;;;2.92;;
64714;SDS011;51144;53.002;6.506;2023-02-28T01:40:53;12.52;;;2.90;;
64714;SDS011;51144;53.002;6.506;2023-02-28T01:43:23;11.20;;;2.80;;
64714;SDS011;51144;53.002;6.506;2023-02-28T01:45:50;11.68;;;2.92;;
64714;SDS011;51144;53.002;6.506;2023-02-28T01:48:16;9.88;;;2.75;;
64714;SDS011;51144;53.002;6.506;2023-02-28T01:50:43;11.93;;;2.70;;
64714;SDS011;51144;53.002;6.506;2023-02-28T01:53:13;10.60;;;2.58;;
64714;SDS011;51144;53.002;6.506;2023-02-28T01:55:41;14.85;;;2.85;;
64714;SDS011;51144;53.002;6.506;2023-02-28T01:58:11;10.75;;;2.35;;
64714;SDS011;51144;53.002;6.506;2023-02-28T02:00:37;8.38;;;2.55;;
64714;SDS011;51144;53.002;6.506;2023-02-28T02:03:05;9.68;;;2.42;;
64714;SDS011;51144;53.002;6.506;2023-02-28T02:05:33;5.47;;;2.22;;
64714;SDS011;51144;53.002;6.506;2023-02-28T02:08:03;8.43;;;2.35;;
64714;SDS011;51144;53.002;6.506;2023-02-28T02:10:32;6.03;;;2.30;;
64714;SDS011;51144;53.002;6.506;2023-02-28T02:19:08;8.80;;;2.55;;
64714;SDS011;51144;53.002;6.506;2023-02-28T02:32:49;21.17;;;4.85;;
64714;SDS011;51144;53.002;6.506;2023-02-28T02:35:25;8.75;;;3.63;;
64714;SDS011;51144;53.002;6.506;2023-02-28T02:40:22;14.07;;;3.15;;
64714;SDS011;51144;53.002;6.506;2023-02-28T02:43:01;7.10;;;3.55;;
64714;SDS011;51144;53.002;6.506;2023-02-28T02:45:45;11.07;;;3.88;;
64714;SDS011;51144;53.002;6.506;2023-02-28T02:48:18;16.35;;;4.40;;
64714;SDS011;51144;53.002;6.506;2023-02-28T02:50:50;12.90;;;3.85;;
64714;SDS011;51144;53.002;6.506;2023-02-28T02:53:21;8.02;;;3.80;;
64714;SDS011;51144;53.002;6.506;2023-02-28T02:56:14;9.02;;;3.70;;
64714;SDS011;51144;53.002;6.506;2023-02-28T02:58:43;11.82;;;3.55;;
64714;SDS011;51144;53.002;6.506;2023-02-28T03:01:12;6.13;;;3.75;;
64714;SDS011;51144;53.002;6.506;2023-02-28T03:03:56;4.72;;;3.10;;
64714;SDS011;51144;53.002;6.506;2023-02-28T03:06:25;7.38;;;3.40;;
64714;SDS011;51144;53.002;6.506;2023-02-28T03:08:50;7.28;;;3.17;;
64714;SDS011;51144;53.002;6.506;2023-02-28T03:11:16;11.02;;;3.70;;
64714;SDS011;51144;53.002;6.506;2023-02-28T03:16:33;6.57;;;3.38;;
64714;SDS011;51144;53.002;6.506;2023-02-28T03:19:17;4.68;;;3.17;;
64714;SDS011;51144;53.002;6.506;2023-02-28T03:24:44;7.65;;;2.58;;
64714;SDS011;51144;53.002;6.506;2023-02-28T03:29:54;5.80;;;2.92;;
64714;SDS011;51144;53.002;6.506;2023-02-28T03:32:52;8.52;;;3.03;;
64714;SDS011;51144;53.002;6.506;2023-02-28T03:35:30;6.50;;;3.00;;
64714;SDS011;51144;53.002;6.506;2023-02-28T03:38:04;6.82;;;2.83;;
64714;SDS011;51144;53.002;6.506;2023-02-28T03:40:43;5.18;;;2.92;;
64714;SDS011;51144;53.002;6.506;2023-02-28T03:43:14;5.50;;;3.65;;
64714;SDS011;51144;53.002;6.506;2023-02-28T03:45:45;9.25;;;4.28;;
64714;SDS011;51144;53.002;6.506;2023-02-28T03:48:15;11.48;;;4.20;;
64714;SDS011;51144;53.002;6.506;2023-02-28T03:50:51;9.07;;;4.33;;
64714;SDS011;51144;53.002;6.506;2023-02-28T03:53:28;8.05;;;4.00;;
64714;SDS011;51144;53.002;6.506;2023-02-28T03:56:05;7.72;;;3.92;;
64714;SDS011;51144;53.002;6.506;2023-02-28T04:01:31;8.50;;;4.22;;
64714;SDS011;51144;53.002;6.506;2023-02-28T04:04:02;9.23;;;4.45;;
64714;SDS011;51144;53.002;6.506;2023-02-28T04:06:30;13.98;;;5.25;;
64714;SDS011;51144;53.002;6.506;2023-02-28T04:08:57;7.78;;;4.80;;
64714;SDS011;51144;53.002;6.506;2023-02-28T04:11:36;12.52;;;5.55;;
64714;SDS011;51144;53.002;6.506;2023-02-28T04:14:03;8.23;;;5.10;;
64714;SDS011;51144;53.002;6.506;2023-02-28T04:16:30;10.43;;;4.55;;
64714;SDS011;51144;53.002;6.506;2023-02-28T04:18:57;6.78;;;5.43;;
64714;SDS011;51144;53.002;6.506;2023-02-28T04:21:38;9.18;;;4.93;;
64714;SDS011;51144;53.002;6.506;2023-02-28T04:24:10;11.27;;;5.05;;
64714;SDS011;51144;53.002;6.506;2023-02-28T04:26:42;8.82;;;4.97;;
64714;SDS011;51144;53.002;6.506;2023-02-28T04:29:09;15.00;;;5.60;;
64714;SDS011;51144;53.002;6.506;2023-02-28T04:31:36;11.20;;;5.63;;
64714;SDS011;51144;53.002;6.506;2023-02-28T04:34:03;10.18;;;5.35;;
64714;SDS011;51144;53.002;6.506;2023-02-28T04:36:28;9.65;;;5.68;;
64714;SDS011;51144;53.002;6.506;2023-02-28T04:38:54;16.27;;;6.53;;
64714;SDS011;51144;53.002;6.506;2023-02-28T04:41:21;12.38;;;5.88;;
64714;SDS011;51144;53.002;6.506;2023-02-28T04:43:47;9.95;;;5.80;;
64714;SDS011;51144;53.002;6.506;2023-02-28T04:46:13;11.00;;;6.38;;
64714;SDS011;51144;53.002;6.506;2023-02-28T04:48:39;12.15;;;7.07;;
64714;SDS011;51144;53.002;6.506;2023-02-28T04:51:06;10.32;;;6.40;;
64714;SDS011;51144;53.002;6.506;2023-02-28T04:53:34;10.00;;;6.60;;
64714;SDS011;51144;53.002;6.506;2023-02-28T04:56:00;10.75;;;7.03;;
64714;SDS011;51144;53.002;6.506;2023-02-28T04:58:26;12.80;;;6.78;;
64714;SDS011;51144;53.002;6.506;2023-02-28T05:00:53;10.73;;;7.07;;
64714;SDS011;51144;53.002;6.506;2023-02-28T05:03:25;14.73;;;8.23;;
64714;SDS011;51144;53.002;6.506;2023-02-28T05:05:51;12.40;;;7.90;;
64714;SDS011;51144;53.002;6.506;2023-02-28T05:08:17;16.92;;;9.50;;
64714;SDS011;51144;53.002;6.506;2023-02-28T05:10:42;14.80;;;9.23;;
64714;SDS011;51144;53.002;6.506;2023-02-28T05:13:09;14.48;;;9.98;;
64714;SDS011;51144;53.002;6.506;2023-02-28T05:15:38;16.27;;;10.63;;
64714;SDS011;51144;53.002;6.506;2023-02-28T05:18:04;14.55;;;10.60;;
64714;SDS011;51144;53.002;6.506;2023-02-28T05:20:30;17.67;;;10.55;;
64714;SDS011;51144;53.002;6.506;2023-02-28T05:22:56;14.68;;;10.63;;
64714;SDS011;51144;53.002;6.506;2023-02-28T05:25:24;18.33;;;11.63;;
64714;SDS011;51144;53.002;6.506;2023-02-28T05:27:49;15.02;;;11.05;;
64714;SDS011;51144;53.002;6.506;2023-02-28T05:30:15;16.33;;;10.57;;
64714;SDS011;51144;53.002;6.506;2023-02-28T05:32:41;17.10;;;10.73;;
64714;SDS011;51144;53.002;6.506;2023-02-28T05:35:10;17.02;;;11.05;;
64714;SDS011;51144;53.002;6.506;2023-02-28T05:37:36;16.73;;;11.80;;
64714;SDS011;51144;53.002;6.506;2023-02-28T05:40:02;18.10;;;12.45;;
64714;SDS011;51144;53.002;6.506;2023-02-28T05:42:31;19.75;;;13.68;;
64714;SDS011;51144;53.002;6.506;2023-02-28T05:44:57;19.05;;;11.88;;
64714;SDS011;51144;53.002;6.506;2023-02-28T05:47:22;21.27;;;12.25;;
64714;SDS011;51144;53.002;6.506;2023-02-28T05:49:48;21.15;;;12.75;;
64714;SDS011;51144;53.002;6.506;2023-02-28T05:52:14;16.83;;;12.50;;
64714;SDS011;51144;53.002;6.506;2023-02-28T05:54:40;16.73;;;13.13;;
64714;SDS011;51144;53.002;6.506;2023-02-28T05:57:06;22.45;;;12.68;;
64714;SDS011;51144;53.002;6.506;2023-02-28T05:59:32;19.60;;;13.48;;
64714;SDS011;51144;53.002;6.506;2023-02-28T06:01:58;20.70;;;13.25;;
64714;SDS011;51144;53.002;6.506;2023-02-28T06:04:23;23.30;;;12.82;;
64714;SDS011;51144;53.002;6.506;2023-02-28T06:06:50;21.58;;;13.57;;
64714;SDS011;51144;53.002;6.506;2023-02-28T06:09:16;20.23;;;13.07;;
64714;SDS011;51144;53.002;6.506;2023-02-28T06:11:44;20.58;;;13.35;;
64714;SDS011;51144;53.002;6.506;2023-02-28T06:14:12;23.80;;;14.48;;
64714;SDS011;51144;53.002;6.506;2023-02-28T06:16:43;23.85;;;13.80;;
64714;SDS011;51144;53.002;6.506;2023-02-28T06:19:09;20.42;;;13.52;;
64714;SDS011;51144;53.002;6.506;2023-02-28T06:21:35;20.48;;;12.85;;
64714;SDS011;51144;53.002;6.506;2023-02-28T06:24:02;23.60;;;12.57;;
64714;SDS011;51144;53.002;6.506;2023-02-28T06:26:28;19.67;;;12.60;;
64714;SDS011;51144;53.002;6.506;2023-02-28T06:28:54;26.50;;;13.48;;
64714;SDS011;51144;53.002;6.506;2023-02-28T06:31:20;23.27;;;13.93;;
64714;SDS011;51144;53.002;6.506;2023-02-28T06:33:47;19.05;;;12.57;;
64714;SDS011;51144;53.002;6.506;2023-02-28T06:36:13;22.10;;;12.23;;
64714;SDS011;51144;53.002;6.506;2023-02-28T06:38:40;23.98;;;12.70;;
64714;SDS011;51144;53.002;6.506;2023-02-28T06:41:06;21.65;;;13.27;;
64714;SDS011;51144;53.002;6.506;2023-02-28T06:43:33;21.75;;;13.40;;
64714;SDS011;51144;53.002;6.506;2023-02-28T06:46:05;19.25;;;12.23;;
64714;SDS011;51144;53.002;6.506;2023-02-28T06:48:33;26.98;;;13.45;;
64714;SDS011;51144;53.002;6.506;2023-02-28T06:51:09;24.40;;;13.75;;
64714;SDS011;51144;53.002;6.506;2023-02-28T06:53:43;21.55;;;12.05;;
64714;SDS011;51144;53.002;6.506;2023-02-28T06:56:09;25.92;;;14.38;;
64714;SDS011;51144;53.002;6.506;2023-02-28T06:58:37;28.98;;;16.33;;
64714;SDS011;51144;53.002;6.506;2023-02-28T07:01:04;33.63;;;15.52;;
64714;SDS011;51144;53.002;6.506;2023-02-28T07:03:30;32.17;;;15.27;;
64714;SDS011;51144;53.002;6.506;2023-02-28T07:05:56;31.13;;;14.90;;
64714;SDS011;51144;53.002;6.506;2023-02-28T07:08:24;30.23;;;15.23;;
64714;SDS011;51144;53.002;6.506;2023-02-28T07:10:55;25.40;;;13.38;;
64714;SDS011;51144;53.002;6.506;2023-02-28T07:13:20;25.80;;;12.35;;
64714;SDS011;51144;53.002;6.506;2023-02-28T07:16:03;25.20;;;13.52;;
64714;SDS011;51144;53.002;6.506;2023-02-28T07:18:30;22.48;;;12.88;;
64714;SDS011;51144;53.002;6.506;2023-02-28T07:20:56;28.95;;;14.63;;
64714;SDS011;51144;53.002;6.506;2023-02-28T07:23:22;21.85;;;13.07;;
64714;SDS011;51144;53.002;6.506;2023-02-28T07:25:49;32.00;;;14.95;;
64714;SDS011;51144;53.002;6.506;2023-02-28T07:28:15;21.65;;;14.05;;
64714;SDS011;51144;53.002;6.506;2023-02-28T07:30:41;20.23;;;13.48;;
64714;SDS011;51144;53.002;6.506;2023-02-28T07:33:07;19.75;;;13.88;;
64714;SDS011;51144;53.002;6.506;2023-02-28T07:35:33;21.65;;;13.68;;
64714;SDS011;51144;53.002;6.506;2023-02-28T07:37:59;26.33;;;16.00;;
64714;SDS011;51144;53.002;6.506;2023-02-28T07:40:25;28.85;;;14.23;;
64714;SDS011;51144;53.002;6.506;2023-02-28T07:42:51;21.23;;;12.98;;
64714;SDS011;51144;53.002;6.506;2023-02-28T07:45:17;27.23;;;13.85;;
64714;SDS011;51144;53.002;6.506;2023-02-28T07:47:43;24.95;;;14.40;;
64714;SDS011;51144;53.002;6.506;2023-02-28T07:50:10;24.88;;;12.50;;
64714;SDS011;51144;53.002;6.506;2023-02-28T07:52:38;21.08;;;12.98;;
64714;SDS011;51144;53.002;6.506;2023-02-28T07:55:05;23.25;;;13.48;;
64714;SDS011;51144;53.002;6.506;2023-02-28T07:57:32;20.55;;;13.05;;
64714;SDS011;51144;53.002;6.506;2023-02-28T07:59:57;20.92;;;13.60;;
64714;SDS011;51144;53.002;6.506;2023-02-28T08:02:23;18.30;;;12.93;;
64714;SDS011;51144;53.002;6.506;2023-02-28T08:04:49;14.90;;;11.82;;
64714;SDS011;51144;53.002;6.506;2023-02-28T08:07:15;20.33;;;12.13;;
64714;SDS011;51144;53.002;6.506;2023-02-28T08:09:41;23.42;;;13.57;;
64714;SDS011;51144;53.002;6.506;2023-02-28T08:12:08;21.98;;;14.02;;
64714;SDS011;51144;53.002;6.506;2023-02-28T08:14:35;22.27;;;13.32;;
64714;SDS011;51144;53.002;6.506;2023-02-28T08:17:01;20.15;;;12.98;;
64714;SDS011;51144;53.002;6.506;2023-02-28T08:19:28;23.48;;;14.60;;
64714;SDS011;51144;53.002;6.506;2023-02-28T08:21:54;18.25;;;13.88;;
64714;SDS011;51144;53.002;6.506;2023-02-28T08:24:19;16.80;;;12.73;;
64714;SDS011;51144;53.002;6.506;2023-02-28T08:26:45;23.40;;;14.20;;
64714;SDS011;51144;53.002;6.506;2023-02-28T08:29:11;21.63;;;13.93;;
64714;SDS011;51144;53.002;6.506;2023-02-28T08:31:36;21.80;;;12.88;;
64714;SDS011;51144;53.002;6.506;2023-02-28T08:34:09;20.77;;;13.82;;
64714;SDS011;51144;53.002;6.506;2023-02-28T08:36:37;19.65;;;12.85;;
64714;SDS011;51144;53.002;6.506;2023-02-28T08:39:03;17.40;;;12.18;;
64714;SDS011;51144;53.002;6.506;2023-02-28T08:41:30;20.75;;;13.07;;
64714;SDS011;51144;53.002;6.506;2023-02-28T08:43:56;17.40;;;14.50;;
64714;SDS011;51144;53.002;6.506;2023-02-28T08:46:22;21.95;;;13.30;;
64714;SDS011;51144;53.002;6.506;2023-02-28T08:48:50;25.35;;;14.13;;
64714;SDS011;51144;53.002;6.506;2023-02-28T08:51:18;18.73;;;13.20;;
64714;SDS011;51144;53.002;6.506;2023-02-28T08:53:47;19.65;;;13.57;;
64714;SDS011;51144;53.002;6.506;2023-02-28T08:56:14;20.98;;;13.40;;
64714;SDS011;51144;53.002;6.506;2023-02-28T08:58:41;16.88;;;12.60;;
64714;SDS011;51144;53.002;6.506;2023-02-28T09:01:09;19.48;;;12.20;;
64714;SDS011;51144;53.002;6.506;2023-02-28T09:03:37;16.80;;;11.20;;
64714;SDS011;51144;53.002;6.506;2023-02-28T09:06:03;15.85;;;12.20;;
64714;SDS011;51144;53.002;6.506;2023-02-28T09:08:29;19.33;;;13.57;;
64714;SDS011;51144;53.002;6.506;2023-02-28T09:10:56;15.00;;;12.45;;
64714;SDS011;51144;53.002;6.506;2023-02-28T09:13:23;18.00;;;13.00;;
64714;SDS011;51144;53.002;6.506;2023-02-28T09:15:50;16.40;;;11.05;;
64714;SDS011;51144;53.002;6.506;2023-02-28T09:18:16;12.98;;;9.57;;
64714;SDS011;51144;53.002;6.506;2023-02-28T09:20:42;10.25;;;8.70;;
64714;SDS011;51144;53.002;6.506;2023-02-28T09:23:09;11.85;;;9.30;;
64714;SDS011;51144;53.002;6.506;2023-02-28T09:25:36;9.93;;;8.20;;
64714;SDS011;51144;53.002;6.506;2023-02-28T09:28:02;10.15;;;8.23;;
64714;SDS011;51144;53.002;6.506;2023-02-28T09:30:28;7.25;;;6.55;;
64714;SDS011;51144;53.002;6.506;2023-02-28T09:32:55;11.38;;;7.05;;
64714;SDS011;51144;53.002;6.506;2023-02-28T09:35:21;13.75;;;8.15;;
64714;SDS011;51144;53.002;6.506;2023-02-28T09:37:48;11.82;;;7.35;;
64714;SDS011;51144;53.002;6.506;2023-02-28T09:40:15;9.43;;;6.22;;
64714;SDS011;51144;53.002;6.506;2023-02-28T09:42:44;13.07;;;8.00;;
64714;SDS011;51144;53.002;6.506;2023-02-28T09:45:33;8.05;;;6.65;;
64714;SDS011;51144;53.002;6.506;2023-02-28T09:48:24;7.93;;;5.90;;
64714;SDS011;51144;53.002;6.506;2023-02-28T09:50:51;9.68;;;5.97;;
64714;SDS011;51144;53.002;6.506;2023-02-28T09:53:26;8.80;;;6.47;;
64714;SDS011;51144;53.002;6.506;2023-02-28T09:55:55;9.18;;;6.53;;
64714;SDS011;51144;53.002;6.506;2023-02-28T10:01:21;6.97;;;5.57;;
64714;SDS011;51144;53.002;6.506;2023-02-28T10:04:12;11.25;;;6.13;;
64714;SDS011;51144;53.002;6.506;2023-02-28T10:07:00;9.68;;;5.38;;
64714;SDS011;51144;53.002;6.506;2023-02-28T10:09:31;6.53;;;5.15;;
64714;SDS011;51144;53.002;6.506;2023-02-28T10:12:02;9.90;;;5.22;;
64714;SDS011;51144;53.002;6.506;2023-02-28T10:14:31;5.68;;;4.07;;
64714;SDS011;51144;53.002;6.506;2023-02-28T10:17:00;4.15;;;3.03;;
64714;SDS011;51144;53.002;6.506;2023-02-28T10:19:38;6.05;;;3.15;;
64714;SDS011;51144;53.002;6.506;2023-02-28T10:24:44;3.38;;;2.10;;
64714;SDS011;51144;53.002;6.506;2023-02-28T10:29:46;5.88;;;3.75;;
64714;SDS011;51144;53.002;6.506;2023-02-28T10:32:15;4.32;;;2.63;;
64714;SDS011;51144;53.002;6.506;2023-02-28T10:34:43;2.97;;;2.50;;
64714;SDS011;51144;53.002;6.506;2023-02-28T10:37:10;4.57;;;2.95;;
64714;SDS011;51144;53.002;6.506;2023-02-28T10:39:42;6.55;;;3.08;;
64714;SDS011;51144;53.002;6.506;2023-02-28T10:42:22;5.07;;;2.33;;
64714;SDS011;51144;53.002;6.506;2023-02-28T10:47:38;4.05;;;1.23;;
64714;SDS011;51144;53.002;6.506;2023-02-28T11:01:42;3.53;;;1.65;;
64714;SDS011;51144;53.002;6.506;2023-02-28T11:07:26;4.28;;;1.70;;
64714;SDS011;51144;53.002;6.506;2023-02-28T11:09:53;2.72;;;1.33;;
64714;SDS011;51144;53.002;6.506;2023-02-28T11:12:34;4.45;;;1.70;;
64714;SDS011;51144;53.002;6.506;2023-02-28T11:15:22;3.20;;;1.35;;
64714;SDS011;51144;53.002;6.506;2023-02-28T11:17:54;5.85;;;1.83;;
64714;SDS011;51144;53.002;6.506;2023-02-28T11:20:36;3.75;;;1.92;;
64714;SDS011;51144;53.002;6.506;2023-02-28T11:23:03;2.78;;;1.63;;
64714;SDS011;51144;53.002;6.506;2023-02-28T11:25:30;5.70;;;2.17;;
64714;SDS011;51144;53.002;6.506;2023-02-28T11:27:59;2.70;;;1.48;;
64714;SDS011;51144;53.002;6.506;2023-02-28T11:30:37;2.22;;;1.77;;
64714;SDS011;51144;53.002;6.506;2023-02-28T11:35:50;5.60;;;1.85;;
64714;SDS011;51144;53.002;6.506;2023-02-28T11:38:17;5.28;;;2.30;;
64714;SDS011;51144;53.002;6.506;2023-02-28T11:40:46;3.90;;;1.67;;
64714;SDS011;51144;53.002;6.506;2023-02-28T11:51:21;2.60;;;1.42;;
64714;SDS011;51144;53.002;6.506;2023-02-28T11:56:43;3.35;;;2.05;;
64714;SDS011;51144;53.002;6.506;2023-02-28T12:16:35;2.97;;;1.77;;
64714;SDS011;51144;53.002;6.506;2023-02-28T12:27:31;4.38;;;2.20;;
64714;SDS011;51144;53.002;6.506;2023-02-28T12:30:14;4.65;;;2.78;;
64714;SDS011;51144;53.002;6.506;2023-02-28T12:32:45;3.40;;;1.95;;
64714;SDS011;51144;53.002;6.506;2023-02-28T12:35:21;4.25;;;2.40;;
64714;SDS011;51144;53.002;6.506;2023-02-28T12:37:51;3.42;;;1.95;;
64714;SDS011;51144;53.002;6.506;2023-02-28T12:41:09;4.03;;;2.03;;
64714;SDS011;51144;53.002;6.506;2023-02-28T12:43:38;5.65;;;3.40;;
64714;SDS011;51144;53.002;6.506;2023-02-28T12:46:17;4.82;;;2.72;;
64714;SDS011;51144;53.002;6.506;2023-02-28T12:48:59;4.88;;;2.22;;
64714;SDS011;51144;53.002;6.506;2023-02-28T12:51:29;4.28;;;2.20;;
64714;SDS011;51144;53.002;6.506;2023-02-28T12:59:47;1.92;;;1.70;;
64714;SDS011;51144;53.002;6.506;2023-02-28T13:02:38;3.92;;;1.90;;
64714;SDS011;51144;53.002;6.506;2023-02-28T13:24:53;3.70;;;1.85;;
64714;SDS011;51144;53.002;6.506;2023-02-28T13:27:21;5.63;;;2.50;;
64714;SDS011;51144;53.002;6.506;2023-02-28T13:30:38;7.65;;;1.80;;
64714;SDS011;51144;53.002;6.506;2023-02-28T13:33:25;2.93;;;1.93;;
64714;SDS011;51144;53.002;6.506;2023-02-28T13:36:03;4.35;;;1.95;;
64714;SDS011;51144;53.002;6.506;2023-02-28T13:38:47;4.60;;;1.85;;
64714;SDS011;51144;53.002;6.506;2023-02-28T13:44:07;2.85;;;1.58;;
64714;SDS011;51144;53.002;6.506;2023-02-28T13:57:33;5.05;;;2.38;;
64714;SDS011;51144;53.002;6.506;2023-02-28T14:03:06;5.05;;;1.95;;
64714;SDS011;51144;53.002;6.506;2023-02-28T14:09:03;2.10;;;1.48;;
64714;SDS011;51144;53.002;6.506;2023-02-28T14:11:42;5.65;;;1.88;;
64714;SDS011;51144;53.002;6.506;2023-02-28T14:14:09;2.75;;;2.05;;
64714;SDS011;51144;53.002;6.506;2023-02-28T14:16:55;4.20;;;1.55;;
64714;SDS011;51144;53.002;6.506;2023-02-28T14:19:26;2.63;;;1.50;;
64714;SDS011;51144;53.002;6.506;2023-02-28T14:22:07;3.38;;;1.92;;
64714;SDS011;51144;53.002;6.506;2023-02-28T14:27:57;6.57;;;1.60;;
64714;SDS011;51144;53.002;6.506;2023-02-28T14:36:43;2.83;;;1.48;;
64714;SDS011;51144;53.002;6.506;2023-02-28T14:39:13;2.95;;;2.00;;
64714;SDS011;51144;53.002;6.506;2023-02-28T14:41:45;3.47;;;1.88;;
64714;SDS011;51144;53.002;6.506;2023-02-28T14:44:15;4.40;;;1.92;;
64714;SDS011;51144;53.002;6.506;2023-02-28T14:46:53;6.72;;;2.25;;
64714;SDS011;51144;53.002;6.506;2023-02-28T14:51:45;4.75;;;2.33;;
64714;SDS011;51144;53.002;6.506;2023-02-28T14:54:26;6.32;;;2.08;;
64714;SDS011;51144;53.002;6.506;2023-02-28T14:56:51;4.28;;;2.47;;
64714;SDS011;51144;53.002;6.506;2023-02-28T14:59:28;4.15;;;2.28;;
64714;SDS011;51144;53.002;6.506;2023-02-28T15:04:51;7.68;;;2.72;;
64714;SDS011;51144;53.002;6.506;2023-02-28T15:07:22;4.22;;;1.88;;
64714;SDS011;51144;53.002;6.506;2023-02-28T15:10:06;8.07;;;2.45;;
64714;SDS011;51144;53.002;6.506;2023-02-28T15:12:44;3.80;;;2.20;;
64714;SDS011;51144;53.002;6.506;2023-02-28T15:18:16;4.30;;;2.22;;
64714;SDS011;51144;53.002;6.506;2023-02-28T15:20:51;4.90;;;2.33;;
64714;SDS011;51144;53.002;6.506;2023-02-28T15:23:18;4.18;;;2.15;;
64714;SDS011;51144;53.002;6.506;2023-02-28T15:25:46;2.97;;;2.20;;
64714;SDS011;51144;53.002;6.506;2023-02-28T15:28:14;3.72;;;2.20;;
64714;SDS011;51144;53.002;6.506;2023-02-28T15:30:57;5.50;;;2.55;;
64714;SDS011;51144;53.002;6.506;2023-02-28T15:33:26;5.50;;;3.00;;
64714;SDS011;51144;53.002;6.506;2023-02-28T15:36:09;4.97;;;2.60;;
64714;SDS011;51144;53.002;6.506;2023-02-28T15:38:41;6.70;;;3.33;;
64714;SDS011;51144;53.002;6.506;2023-02-28T15:41:31;4.70;;;2.30;;
64714;SDS011;51144;53.002;6.506;2023-02-28T15:47:02;8.15;;;2.88;;
64714;SDS011;51144;53.002;6.506;2023-02-28T15:49:32;5.85;;;2.55;;
64714;SDS011;51144;53.002;6.506;2023-02-28T15:55:08;4.10;;;2.83;;
64714;SDS011;51144;53.002;6.506;2023-02-28T15:57:38;5.97;;;2.90;;
64714;SDS011;51144;53.002;6.506;2023-02-28T16:00:06;3.47;;;2.65;;
64714;SDS011;51144;53.002;6.506;2023-02-28T16:02:38;7.03;;;3.35;;
64714;SDS011;51144;53.002;6.506;2023-02-28T16:07:36;5.70;;;3.65;;
64714;SDS011;51144;53.002;6.506;2023-02-28T16:10:04;9.90;;;3.42;;
64714;SDS011;51144;53.002;6.506;2023-02-28T16:12:32;5.68;;;3.40;;
64714;SDS011;51144;53.002;6.506;2023-02-28T16:15:01;6.03;;;2.92;;
64714;SDS011;51144;53.002;6.506;2023-02-28T16:17:32;3.28;;;2.60;;
64714;SDS011;51144;53.002;6.506;2023-02-28T16:19:59;5.63;;;2.65;;
64714;SDS011;51144;53.002;6.506;2023-02-28T16:22:25;3.92;;;2.90;;
64714;SDS011;51144;53.002;6.506;2023-02-28T16:24:51;6.45;;;3.22;;
64714;SDS011;51144;53.002;6.506;2023-02-28T16:27:36;5.20;;;3.20;;
64714;SDS011;51144;53.002;6.506;2023-02-28T16:30:03;5.85;;;3.92;;
64714;SDS011;51144;53.002;6.506;2023-02-28T16:32:30;6.45;;;3.28;;
64714;SDS011;51144;53.002;6.506;2023-02-28T16:34:59;6.10;;;3.65;;
64714;SDS011;51144;53.002;6.506;2023-02-28T16:37:26;5.28;;;3.88;;
64714;SDS011;51144;53.002;6.506;2023-02-28T16:39:52;4.85;;;3.53;;
64714;SDS011;51144;53.002;6.506;2023-02-28T16:42:26;4.63;;;3.25;;
64714;SDS011;51144;53.002;6.506;2023-02-28T16:44:53;5.22;;;3.85;;
64714;SDS011;51144;53.002;6.506;2023-02-28T16:47:20;7.07;;;3.20;;
64714;SDS011;51144;53.002;6.506;2023-02-28T16:49:46;5.68;;;3.80;;
64714;SDS011;51144;53.002;6.506;2023-02-28T16:52:13;3.83;;;2.70;;
64714;SDS011;51144;53.002;6.506;2023-02-28T16:54:39;4.68;;;3.15;;
64714;SDS011;51144;53.002;6.506;2023-02-28T16:57:06;4.32;;;2.67;;
64714;SDS011;51144;53.002;6.506;2023-02-28T16:59:40;4.63;;;3.03;;
64714;SDS011;51144;53.002;6.506;2023-02-28T17:02:13;6.68;;;3.70;;
64714;SDS011;51144;53.002;6.506;2023-02-28T17:04:41;5.82;;;3.75;;
64714;SDS011;51144;53.002;6.506;2023-02-28T17:07:13;5.30;;;3.72;;
64714;SDS011;51144;53.002;6.506;2023-02-28T17:09:41;5.65;;;3.92;;
64714;SDS011;51144;53.002;6.506;2023-02-28T17:12:06;9.23;;;4.35;;
64714;SDS011;51144;53.002;6.506;2023-02-28T17:14:33;6.03;;;4.28;;
64714;SDS011;51144;53.002;6.506;2023-02-28T17:16:59;11.15;;;5.15;;
64714;SDS011;51144;53.002;6.506;2023-02-28T17:19:25;7.40;;;5.32;;
64714;SDS011;51144;53.002;6.506;2023-02-28T17:21:50;7.75;;;4.40;;
64714;SDS011;51144;53.002;6.506;2023-02-28T17:24:16;6.25;;;4.00;;
64714;SDS011;51144;53.002;6.506;2023-02-28T17:26:42;6.80;;;4.20;;
64714;SDS011;51144;53.002;6.506;2023-02-28T17:29:13;7.55;;;4.68;;
64714;SDS011;51144;53.002;6.506;2023-02-28T17:31:41;5.55;;;4.30;;
64714;SDS011;51144;53.002;6.506;2023-02-28T17:34:07;9.80;;;4.40;;
64714;SDS011;51144;53.002;6.506;2023-02-28T17:36:33;8.70;;;4.50;;
64714;SDS011;51144;53.002;6.506;2023-02-28T17:39:00;6.55;;;4.53;;
64714;SDS011;51144;53.002;6.506;2023-02-28T17:41:26;6.10;;;4.55;;